»·PEaware :: N9964L KSNS-KPRB

N9964L :: KSNS-KPRB

FLIGHT INFORMATION

Flight Status: Arrived
Operator: Privately registered:
United States
More flights under this callsign
Pilot: Mike E. (18363)
Aircraft: CESSNA 172 SKYHAWK
(C172)
More flights by this aircraft type
Origin: KSNS Salinas Mun
United States
Destination: KPRB Paso Robles Mun
United States
More flights between these airports :: More routes between these airports
Route: +CHLN3 SNS SARDO PRB
File this flight plan on PilotEdge
Remarks:
Altitude:
(Current/Filed)
7,000ft
Speed:
(Current/Filed)
100kts
Departed: 15-Jul-18 11:51 AM
Arrived: 15-Jul-18 12:37 PM
Distance/Time
Traveled:
79nm/0:46
Distance/Time
To Go:
Arrived

Flight Plot

Page will automatically refresh every two minutes.


Map Options




Map Legend


Flown Route
Filed Route
Departure Airport
Arrival Airport
Navaid (VOR, NDB)
Fix

Horizontal Profiles

Position Reports

Time Latitude Longitude Heading Altitude Ground
Speed
15-Jul-18 11:42 36.664472 -121.610108 321 72ft 0kts
15-Jul-18 11:43 36.664472 -121.610108 320 72ft 0kts
15-Jul-18 11:44 36.664472 -121.610108 321 72ft 0kts
15-Jul-18 11:45 36.664472 -121.610108 321 72ft 0kts
15-Jul-18 11:46 36.664472 -121.610108 321 72ft 0kts
15-Jul-18 11:47 36.664472 -121.610108 321 72ft 0kts
15-Jul-18 11:48 36.664992 -121.609911 42 72ft 16kts
15-Jul-18 11:49 36.661004 -121.605624 148 72ft 22kts
15-Jul-18 11:50 36.657184 -121.602232 117 65ft 0kts
15-Jul-18 11:51 36.657744 -121.601530 331 64ft 12kts
15-Jul-18 11:52 36.661072 -121.604193 326 130ft 72kts
15-Jul-18 11:53 36.668980 -121.624660 219 1071ft 86kts
15-Jul-18 11:54 36.655767 -121.609182 95 1974ft 85kts
15-Jul-18 11:55 36.649409 -121.581778 128 2862ft 84kts
15-Jul-18 11:56 36.634371 -121.560430 131 3737ft 82kts
15-Jul-18 11:57 36.618996 -121.539195 130 4536ft 83kts
15-Jul-18 11:58 36.603482 -121.517292 130 5260ft 86kts
15-Jul-18 11:59 36.587017 -121.493991 130 5879ft 94kts
15-Jul-18 12:00 36.569272 -121.468878 131 6485ft 97kts
15-Jul-18 12:01 36.551338 -121.443499 131 6978ft 105kts
15-Jul-18 12:02 36.530008 -121.413403 131 6981ft 123kts
15-Jul-18 12:03 36.507944 -121.382255 131 6976ft 115kts
15-Jul-18 12:04 36.487163 -121.352915 131 6978ft 112kts
15-Jul-18 12:05 36.466836 -121.324224 132 6979ft 113kts
15-Jul-18 12:06 36.445933 -121.294753 132 6978ft 114kts
15-Jul-18 12:07 36.424854 -121.265070 132 6978ft 114kts
15-Jul-18 12:08 36.403869 -121.235544 132 6978ft 114kts
15-Jul-18 12:09 36.382592 -121.205591 134 6981ft 120kts
15-Jul-18 12:10 36.360598 -121.174762 134 6973ft 122kts
15-Jul-18 12:11 36.338939 -121.144392 134 6968ft 115kts
15-Jul-18 12:12 36.317735 -121.114692 134 6963ft 114kts
15-Jul-18 12:13 36.296485 -121.084939 134 6957ft 116kts
15-Jul-18 12:14 36.275145 -121.055070 133 7022ft 109kts
15-Jul-18 12:15 36.257196 -121.029891 133 7447ft 104kts
15-Jul-18 12:16 36.236659 -121.001230 133 7441ft 112kts
15-Jul-18 12:17 36.216022 -120.972440 133 7435ft 112kts
15-Jul-18 12:18 36.195332 -120.943585 133 7432ft 112kts
15-Jul-18 12:19 36.175079 -120.915354 133 7497ft 109kts
15-Jul-18 12:20 36.154653 -120.886917 133 7496ft 111kts
15-Jul-18 12:21 36.134138 -120.858381 133 7496ft 111kts
15-Jul-18 12:22 36.113629 -120.829623 132 7496ft 111kts
15-Jul-18 12:23 36.093409 -120.800630 144 7492ft 111kts
15-Jul-18 12:24 36.064430 -120.788083 162 7496ft 110kts
15-Jul-18 12:25 36.037682 -120.777080 162 7496ft 110kts
15-Jul-18 12:26 36.008679 -120.765134 162 7496ft 110kts
15-Jul-18 12:27 35.979497 -120.753118 162 7375ft 113kts
15-Jul-18 12:28 35.948558 -120.740421 162 6881ft 119kts
15-Jul-18 12:29 35.917227 -120.727547 162 6378ft 119kts
15-Jul-18 12:30 35.885841 -120.714731 163 5859ft 120kts
15-Jul-18 12:31 35.854507 -120.701869 163 5258ft 118kts
15-Jul-18 12:32 35.823526 -120.689147 163 4661ft 117kts
15-Jul-18 12:33 35.792441 -120.676385 163 4063ft 118kts
15-Jul-18 12:34 35.761344 -120.663624 163 3466ft 118kts
15-Jul-18 12:35 35.729911 -120.660828 182 2834ft 111kts
15-Jul-18 12:36 35.701465 -120.648395 146 1881ft 101kts
15-Jul-18 12:37 35.680129 -120.629353 146 1031ft 77kts
15-Jul-18 12:38 35.670373 -120.620692 140 815ft 39kts
15-Jul-18 12:39 35.664907 -120.619029 201 815ft 17kts
15-Jul-18 12:40 35.664509 -120.619250 50 815ft 0kts
15-Jul-18 12:41 35.664509 -120.619250 50 815ft 0kts
15-Jul-18 12:42 35.664509 -120.619251 50 815ft 0kts
15-Jul-18 12:46 35.677549 -120.633364 178 815ft 0kts
15-Jul-18 12:47 35.677293 -120.631775 88 815ft 17kts
15-Jul-18 12:48 35.677357 -120.628991 88 815ft 0kts
15-Jul-18 12:49 35.677239 -120.628371 146 815ft 11kts
15-Jul-18 12:50 35.660874 -120.637226 197 1321ft 85kts
15-Jul-18 12:51 35.637722 -120.639195 197 2214ft 83kts
15-Jul-18 12:52 35.619626 -120.645362 197 2948ft 81kts
15-Jul-18 12:53 35.596100 -120.653555 197 3467ft 104kts

Navigation Log

Ident Type
Flight plan parsing failed, navigation log unavailable